sensor_id;sensor_type;location;lat;lon;timestamp;P1;durP1;ratioP1;P2;durP2;ratioP2
20679;SDS011;10499;47.494;7.608;2023-02-23T00:03:37;0.25;;;0.25;;
20679;SDS011;10499;47.494;7.608;2023-02-23T00:06:04;0.20;;;0.20;;
20679;SDS011;10499;47.494;7.608;2023-02-23T00:08:31;0.20;;;0.20;;
20679;SDS011;10499;47.494;7.608;2023-02-23T00:11:00;0.30;;;0.30;;
20679;SDS011;10499;47.494;7.608;2023-02-23T00:13:30;0.20;;;0.20;;
20679;SDS011;10499;47.494;7.608;2023-02-23T00:15:57;0.20;;;0.20;;
20679;SDS011;10499;47.494;7.608;2023-02-23T00:18:23;0.20;;;0.20;;
20679;SDS011;10499;47.494;7.608;2023-02-23T00:20:55;0.20;;;0.20;;
20679;SDS011;10499;47.494;7.608;2023-02-23T00:23:23;0.20;;;0.20;;
20679;SDS011;10499;47.494;7.608;2023-02-23T00:25:51;0.20;;;0.20;;
20679;SDS011;10499;47.494;7.608;2023-02-23T00:28:17;0.20;;;0.20;;
20679;SDS011;10499;47.494;7.608;2023-02-23T00:30:42;0.20;;;0.20;;
20679;SDS011;10499;47.494;7.608;2023-02-23T00:33:10;0.20;;;0.20;;
20679;SDS011;10499;47.494;7.608;2023-02-23T00:35:36;0.20;;;0.20;;
20679;SDS011;10499;47.494;7.608;2023-02-23T00:38:02;0.25;;;0.25;;
20679;SDS011;10499;47.494;7.608;2023-02-23T00:40:27;0.20;;;0.20;;
20679;SDS011;10499;47.494;7.608;2023-02-23T00:42:54;0.20;;;0.20;;
20679;SDS011;10499;47.494;7.608;2023-02-23T00:45:19;0.30;;;0.30;;
20679;SDS011;10499;47.494;7.608;2023-02-23T00:47:45;0.20;;;0.20;;
20679;SDS011;10499;47.494;7.608;2023-02-23T00:50:13;0.22;;;0.22;;
20679;SDS011;10499;47.494;7.608;2023-02-23T00:52:41;0.20;;;0.20;;
20679;SDS011;10499;47.494;7.608;2023-02-23T00:55:07;0.20;;;0.20;;
20679;SDS011;10499;47.494;7.608;2023-02-23T00:57:35;0.30;;;0.30;;
20679;SDS011;10499;47.494;7.608;2023-02-23T01:00:01;0.30;;;0.30;;
20679;SDS011;10499;47.494;7.608;2023-02-23T01:02:37;0.20;;;0.20;;
20679;SDS011;10499;47.494;7.608;2023-02-23T01:05:03;0.30;;;0.30;;
20679;SDS011;10499;47.494;7.608;2023-02-23T01:07:29;0.30;;;0.30;;
20679;SDS011;10499;47.494;7.608;2023-02-23T01:09:54;0.20;;;0.20;;
20679;SDS011;10499;47.494;7.608;2023-02-23T01:12:20;0.30;;;0.30;;
20679;SDS011;10499;47.494;7.608;2023-02-23T01:14:46;0.20;;;0.20;;
20679;SDS011;10499;47.494;7.608;2023-02-23T01:17:11;0.28;;;0.28;;
20679;SDS011;10499;47.494;7.608;2023-02-23T01:19:37;0.20;;;0.20;;
20679;SDS011;10499;47.494;7.608;2023-02-23T01:22:03;0.20;;;0.20;;
20679;SDS011;10499;47.494;7.608;2023-02-23T01:24:29;0.30;;;0.30;;
20679;SDS011;10499;47.494;7.608;2023-02-23T01:26:55;0.30;;;0.30;;
20679;SDS011;10499;47.494;7.608;2023-02-23T01:29:20;0.30;;;0.30;;
20679;SDS011;10499;47.494;7.608;2023-02-23T01:31:47;0.30;;;0.30;;
20679;SDS011;10499;47.494;7.608;2023-02-23T01:34:15;0.30;;;0.30;;
20679;SDS011;10499;47.494;7.608;2023-02-23T01:36:42;0.20;;;0.20;;
20679;SDS011;10499;47.494;7.608;2023-02-23T01:39:10;0.30;;;0.30;;
20679;SDS011;10499;47.494;7.608;2023-02-23T01:41:37;0.20;;;0.20;;
20679;SDS011;10499;47.494;7.608;2023-02-23T01:46:41;0.20;;;0.20;;
20679;SDS011;10499;47.494;7.608;2023-02-23T01:49:12;0.20;;;0.20;;
20679;SDS011;10499;47.494;7.608;2023-02-23T01:51:52;0.23;;;0.23;;
20679;SDS011;10499;47.494;7.608;2023-02-23T01:54:25;0.20;;;0.20;;
20679;SDS011;10499;47.494;7.608;2023-02-23T01:56:53;0.30;;;0.30;;
20679;SDS011;10499;47.494;7.608;2023-02-23T01:59:29;0.30;;;0.30;;
20679;SDS011;10499;47.494;7.608;2023-02-23T02:02:00;0.20;;;0.20;;
20679;SDS011;10499;47.494;7.608;2023-02-23T02:04:29;0.30;;;0.30;;
20679;SDS011;10499;47.494;7.608;2023-02-23T02:07:07;0.30;;;0.30;;
20679;SDS011;10499;47.494;7.608;2023-02-23T02:09:33;0.30;;;0.30;;
20679;SDS011;10499;47.494;7.608;2023-02-23T02:12:02;0.20;;;0.20;;
20679;SDS011;10499;47.494;7.608;2023-02-23T02:14:32;0.20;;;0.20;;
20679;SDS011;10499;47.494;7.608;2023-02-23T02:19:45;0.20;;;0.20;;
20679;SDS011;10499;47.494;7.608;2023-02-23T02:47:40;0.20;;;0.20;;
20679;SDS011;10499;47.494;7.608;2023-02-23T02:50:16;0.20;;;0.20;;
20679;SDS011;10499;47.494;7.608;2023-02-23T02:53:06;0.20;;;0.20;;
20679;SDS011;10499;47.494;7.608;2023-02-23T02:55:33;0.20;;;0.20;;
20679;SDS011;10499;47.494;7.608;2023-02-23T02:58:04;0.20;;;0.20;;
20679;SDS011;10499;47.494;7.608;2023-02-23T03:00:36;0.20;;;0.20;;
20679;SDS011;10499;47.494;7.608;2023-02-23T03:06:25;0.20;;;0.20;;
20679;SDS011;10499;47.494;7.608;2023-02-23T03:09:24;0.20;;;0.20;;
20679;SDS011;10499;47.494;7.608;2023-02-23T03:21:49;0.20;;;0.20;;
20679;SDS011;10499;47.494;7.608;2023-02-23T03:28:08;0.20;;;0.20;;
20679;SDS011;10499;47.494;7.608;2023-02-23T03:31:11;0.20;;;0.20;;
20679;SDS011;10499;47.494;7.608;2023-02-23T03:34:14;0.30;;;0.30;;
20679;SDS011;10499;47.494;7.608;2023-02-23T03:37:13;0.20;;;0.20;;
20679;SDS011;10499;47.494;7.608;2023-02-23T03:40:09;0.20;;;0.20;;
20679;SDS011;10499;47.494;7.608;2023-02-23T03:42:56;0.22;;;0.22;;
20679;SDS011;10499;47.494;7.608;2023-02-23T03:45:44;0.30;;;0.30;;
20679;SDS011;10499;47.494;7.608;2023-02-23T03:48:31;0.20;;;0.20;;
20679;SDS011;10499;47.494;7.608;2023-02-23T03:51:19;0.30;;;0.30;;
20679;SDS011;10499;47.494;7.608;2023-02-23T03:54:12;0.30;;;0.30;;
20679;SDS011;10499;47.494;7.608;2023-02-23T03:57:06;0.20;;;0.20;;
20679;SDS011;10499;47.494;7.608;2023-02-23T03:59:55;0.20;;;0.20;;
20679;SDS011;10499;47.494;7.608;2023-02-23T04:02:42;0.20;;;0.20;;
20679;SDS011;10499;47.494;7.608;2023-02-23T04:05:29;0.20;;;0.20;;
20679;SDS011;10499;47.494;7.608;2023-02-23T04:08:17;0.20;;;0.20;;
20679;SDS011;10499;47.494;7.608;2023-02-23T04:11:12;0.28;;;0.28;;
20679;SDS011;10499;47.494;7.608;2023-02-23T04:14:04;0.28;;;0.28;;
20679;SDS011;10499;47.494;7.608;2023-02-23T04:16:34;0.30;;;0.30;;
20679;SDS011;10499;47.494;7.608;2023-02-23T04:19:01;0.30;;;0.30;;
20679;SDS011;10499;47.494;7.608;2023-02-23T04:21:27;0.30;;;0.30;;
20679;SDS011;10499;47.494;7.608;2023-02-23T04:23:52;0.20;;;0.20;;
20679;SDS011;10499;47.494;7.608;2023-02-23T04:26:18;0.20;;;0.20;;
20679;SDS011;10499;47.494;7.608;2023-02-23T04:28:44;0.30;;;0.30;;
20679;SDS011;10499;47.494;7.608;2023-02-23T04:31:09;0.20;;;0.20;;
20679;SDS011;10499;47.494;7.608;2023-02-23T04:33:35;0.20;;;0.20;;
20679;SDS011;10499;47.494;7.608;2023-02-23T04:36:01;0.20;;;0.20;;
20679;SDS011;10499;47.494;7.608;2023-02-23T04:38:26;0.28;;;0.28;;
20679;SDS011;10499;47.494;7.608;2023-02-23T04:40:52;0.20;;;0.20;;
20679;SDS011;10499;47.494;7.608;2023-02-23T04:43:18;0.20;;;0.20;;
20679;SDS011;10499;47.494;7.608;2023-02-23T04:45:44;0.20;;;0.20;;
20679;SDS011;10499;47.494;7.608;2023-02-23T04:48:09;0.30;;;0.30;;
20679;SDS011;10499;47.494;7.608;2023-02-23T04:50:35;0.20;;;0.20;;
20679;SDS011;10499;47.494;7.608;2023-02-23T04:53:01;0.20;;;0.20;;
20679;SDS011;10499;47.494;7.608;2023-02-23T04:55:27;0.20;;;0.20;;
20679;SDS011;10499;47.494;7.608;2023-02-23T04:57:56;0.20;;;0.20;;
20679;SDS011;10499;47.494;7.608;2023-02-23T05:00:24;0.30;;;0.30;;
20679;SDS011;10499;47.494;7.608;2023-02-23T05:02:50;0.25;;;0.25;;
20679;SDS011;10499;47.494;7.608;2023-02-23T05:05:15;0.30;;;0.30;;
20679;SDS011;10499;47.494;7.608;2023-02-23T05:07:41;0.30;;;0.30;;
20679;SDS011;10499;47.494;7.608;2023-02-23T05:10:08;0.30;;;0.30;;
20679;SDS011;10499;47.494;7.608;2023-02-23T05:12:34;0.30;;;0.30;;
20679;SDS011;10499;47.494;7.608;2023-02-23T05:15:00;0.20;;;0.20;;
20679;SDS011;10499;47.494;7.608;2023-02-23T05:17:26;0.30;;;0.30;;
20679;SDS011;10499;47.494;7.608;2023-02-23T05:19:51;0.30;;;0.30;;
20679;SDS011;10499;47.494;7.608;2023-02-23T05:22:17;0.20;;;0.20;;
20679;SDS011;10499;47.494;7.608;2023-02-23T05:24:43;0.20;;;0.20;;
20679;SDS011;10499;47.494;7.608;2023-02-23T05:27:09;0.20;;;0.20;;
20679;SDS011;10499;47.494;7.608;2023-02-23T05:29:37;0.30;;;0.30;;
20679;SDS011;10499;47.494;7.608;2023-02-23T05:32:03;0.20;;;0.20;;
20679;SDS011;10499;47.494;7.608;2023-02-23T05:34:29;0.30;;;0.30;;
20679;SDS011;10499;47.494;7.608;2023-02-23T05:36:55;0.30;;;0.30;;
20679;SDS011;10499;47.494;7.608;2023-02-23T05:39:20;0.20;;;0.20;;
20679;SDS011;10499;47.494;7.608;2023-02-23T05:41:46;0.30;;;0.30;;
20679;SDS011;10499;47.494;7.608;2023-02-23T05:44:12;0.30;;;0.30;;
20679;SDS011;10499;47.494;7.608;2023-02-23T05:46:37;0.20;;;0.20;;
20679;SDS011;10499;47.494;7.608;2023-02-23T05:49:03;0.20;;;0.20;;
20679;SDS011;10499;47.494;7.608;2023-02-23T05:51:29;0.30;;;0.30;;
20679;SDS011;10499;47.494;7.608;2023-02-23T05:53:56;0.20;;;0.20;;
20679;SDS011;10499;47.494;7.608;2023-02-23T05:56:22;0.30;;;0.30;;
20679;SDS011;10499;47.494;7.608;2023-02-23T05:58:49;0.20;;;0.20;;
20679;SDS011;10499;47.494;7.608;2023-02-23T06:01:16;0.30;;;0.30;;
20679;SDS011;10499;47.494;7.608;2023-02-23T06:03:43;0.20;;;0.20;;
20679;SDS011;10499;47.494;7.608;2023-02-23T06:06:09;0.30;;;0.30;;
20679;SDS011;10499;47.494;7.608;2023-02-23T06:08:35;0.30;;;0.30;;
20679;SDS011;10499;47.494;7.608;2023-02-23T06:11:01;0.30;;;0.30;;
20679;SDS011;10499;47.494;7.608;2023-02-23T06:13:27;0.20;;;0.20;;
20679;SDS011;10499;47.494;7.608;2023-02-23T06:15:54;0.20;;;0.20;;
20679;SDS011;10499;47.494;7.608;2023-02-23T06:18:19;0.20;;;0.20;;
20679;SDS011;10499;47.494;7.608;2023-02-23T06:20:46;0.20;;;0.20;;
20679;SDS011;10499;47.494;7.608;2023-02-23T06:23:12;0.20;;;0.20;;
20679;SDS011;10499;47.494;7.608;2023-02-23T06:25:39;0.20;;;0.20;;
20679;SDS011;10499;47.494;7.608;2023-02-23T06:28:06;0.30;;;0.30;;
20679;SDS011;10499;47.494;7.608;2023-02-23T06:30:32;0.23;;;0.23;;
20679;SDS011;10499;47.494;7.608;2023-02-23T06:32:59;0.20;;;0.20;;
20679;SDS011;10499;47.494;7.608;2023-02-23T06:35:24;0.20;;;0.20;;
20679;SDS011;10499;47.494;7.608;2023-02-23T06:37:51;0.20;;;0.20;;
20679;SDS011;10499;47.494;7.608;2023-02-23T06:40:17;0.30;;;0.30;;
20679;SDS011;10499;47.494;7.608;2023-02-23T06:42:43;0.20;;;0.20;;
20679;SDS011;10499;47.494;7.608;2023-02-23T06:45:10;0.30;;;0.30;;
20679;SDS011;10499;47.494;7.608;2023-02-23T06:47:37;0.30;;;0.30;;
20679;SDS011;10499;47.494;7.608;2023-02-23T06:50:04;0.30;;;0.30;;
20679;SDS011;10499;47.494;7.608;2023-02-23T06:52:30;0.30;;;0.30;;
20679;SDS011;10499;47.494;7.608;2023-02-23T06:54:56;0.30;;;0.30;;
20679;SDS011;10499;47.494;7.608;2023-02-23T06:57:22;0.30;;;0.30;;
20679;SDS011;10499;47.494;7.608;2023-02-23T06:59:48;0.30;;;0.30;;
20679;SDS011;10499;47.494;7.608;2023-02-23T07:02:13;0.30;;;0.30;;
20679;SDS011;10499;47.494;7.608;2023-02-23T07:04:39;0.20;;;0.20;;
20679;SDS011;10499;47.494;7.608;2023-02-23T07:07:05;0.20;;;0.20;;
20679;SDS011;10499;47.494;7.608;2023-02-23T07:09:31;0.20;;;0.20;;
20679;SDS011;10499;47.494;7.608;2023-02-23T07:11:56;0.20;;;0.20;;
20679;SDS011;10499;47.494;7.608;2023-02-23T07:14:23;0.20;;;0.20;;
20679;SDS011;10499;47.494;7.608;2023-02-23T07:16:48;0.20;;;0.20;;
20679;SDS011;10499;47.494;7.608;2023-02-23T07:19:14;0.30;;;0.30;;
20679;SDS011;10499;47.494;7.608;2023-02-23T07:21:40;0.30;;;0.30;;
20679;SDS011;10499;47.494;7.608;2023-02-23T07:24:05;0.20;;;0.20;;
20679;SDS011;10499;47.494;7.608;2023-02-23T07:26:31;0.30;;;0.30;;
20679;SDS011;10499;47.494;7.608;2023-02-23T07:28:57;0.30;;;0.30;;
20679;SDS011;10499;47.494;7.608;2023-02-23T07:31:24;0.20;;;0.20;;
20679;SDS011;10499;47.494;7.608;2023-02-23T07:33:50;0.30;;;0.30;;
20679;SDS011;10499;47.494;7.608;2023-02-23T07:36:18;0.30;;;0.30;;
20679;SDS011;10499;47.494;7.608;2023-02-23T07:38:45;0.20;;;0.20;;
20679;SDS011;10499;47.494;7.608;2023-02-23T07:41:10;0.20;;;0.20;;
20679;SDS011;10499;47.494;7.608;2023-02-23T07:43:36;0.20;;;0.20;;
20679;SDS011;10499;47.494;7.608;2023-02-23T07:46:01;0.20;;;0.20;;
20679;SDS011;10499;47.494;7.608;2023-02-23T07:48:27;0.20;;;0.20;;
20679;SDS011;10499;47.494;7.608;2023-02-23T07:50:53;0.20;;;0.20;;
20679;SDS011;10499;47.494;7.608;2023-02-23T07:53:18;0.20;;;0.20;;
20679;SDS011;10499;47.494;7.608;2023-02-23T07:55:44;0.20;;;0.20;;
20679;SDS011;10499;47.494;7.608;2023-02-23T07:58:10;0.20;;;0.20;;
20679;SDS011;10499;47.494;7.608;2023-02-23T08:00:37;0.20;;;0.20;;
20679;SDS011;10499;47.494;7.608;2023-02-23T08:03:04;0.20;;;0.20;;
20679;SDS011;10499;47.494;7.608;2023-02-23T08:05:30;0.20;;;0.20;;
20679;SDS011;10499;47.494;7.608;2023-02-23T08:07:56;0.10;;;0.10;;
20679;SDS011;10499;47.494;7.608;2023-02-23T08:10:23;0.20;;;0.20;;
20679;SDS011;10499;47.494;7.608;2023-02-23T08:12:49;0.20;;;0.20;;
20679;SDS011;10499;47.494;7.608;2023-02-23T08:15:15;0.20;;;0.20;;
20679;SDS011;10499;47.494;7.608;2023-02-23T08:17:40;0.20;;;0.20;;
20679;SDS011;10499;47.494;7.608;2023-02-23T08:20:07;0.20;;;0.20;;
20679;SDS011;10499;47.494;7.608;2023-02-23T08:22:34;0.20;;;0.20;;
20679;SDS011;10499;47.494;7.608;2023-02-23T08:24:59;0.20;;;0.20;;
20679;SDS011;10499;47.494;7.608;2023-02-23T08:27:27;0.20;;;0.20;;
20679;SDS011;10499;47.494;7.608;2023-02-23T08:29:55;0.20;;;0.20;;
20679;SDS011;10499;47.494;7.608;2023-02-23T08:32:21;0.20;;;0.20;;
20679;SDS011;10499;47.494;7.608;2023-02-23T08:34:47;0.20;;;0.20;;
20679;SDS011;10499;47.494;7.608;2023-02-23T08:37:12;0.20;;;0.20;;
20679;SDS011;10499;47.494;7.608;2023-02-23T08:39:38;0.20;;;0.20;;
20679;SDS011;10499;47.494;7.608;2023-02-23T08:42:04;0.20;;;0.20;;
20679;SDS011;10499;47.494;7.608;2023-02-23T08:44:30;0.20;;;0.20;;
20679;SDS011;10499;47.494;7.608;2023-02-23T08:46:56;0.20;;;0.20;;
20679;SDS011;10499;47.494;7.608;2023-02-23T08:49:22;0.20;;;0.20;;
20679;SDS011;10499;47.494;7.608;2023-02-23T08:51:49;0.20;;;0.20;;
20679;SDS011;10499;47.494;7.608;2023-02-23T08:54:15;0.20;;;0.20;;
20679;SDS011;10499;47.494;7.608;2023-02-23T08:56:41;0.20;;;0.20;;
20679;SDS011;10499;47.494;7.608;2023-02-23T08:59:08;0.20;;;0.20;;
20679;SDS011;10499;47.494;7.608;2023-02-23T09:01:35;0.20;;;0.20;;
20679;SDS011;10499;47.494;7.608;2023-02-23T09:04:01;0.20;;;0.20;;
20679;SDS011;10499;47.494;7.608;2023-02-23T09:06:27;0.20;;;0.20;;
20679;SDS011;10499;47.494;7.608;2023-02-23T09:08:53;0.20;;;0.20;;
20679;SDS011;10499;47.494;7.608;2023-02-23T09:11:20;0.20;;;0.20;;
20679;SDS011;10499;47.494;7.608;2023-02-23T09:13:46;0.10;;;0.10;;
20679;SDS011;10499;47.494;7.608;2023-02-23T09:16:12;0.20;;;0.20;;
20679;SDS011;10499;47.494;7.608;2023-02-23T09:18:38;0.20;;;0.20;;
20679;SDS011;10499;47.494;7.608;2023-02-23T09:21:04;0.20;;;0.20;;
20679;SDS011;10499;47.494;7.608;2023-02-23T09:23:36;0.10;;;0.10;;
20679;SDS011;10499;47.494;7.608;2023-02-23T09:26:06;0.20;;;0.20;;
20679;SDS011;10499;47.494;7.608;2023-02-23T09:28:33;0.20;;;0.20;;
20679;SDS011;10499;47.494;7.608;2023-02-23T09:31:09;0.10;;;0.10;;
20679;SDS011;10499;47.494;7.608;2023-02-23T09:33:36;0.20;;;0.20;;
20679;SDS011;10499;47.494;7.608;2023-02-23T09:36:08;0.20;;;0.20;;
20679;SDS011;10499;47.494;7.608;2023-02-23T09:38:42;0.10;;;0.10;;
20679;SDS011;10499;47.494;7.608;2023-02-23T09:41:45;0.10;;;0.10;;
20679;SDS011;10499;47.494;7.608;2023-02-23T09:49:39;0.10;;;0.10;;
20679;SDS011;10499;47.494;7.608;2023-02-23T09:52:09;0.00;;;0.00;;
20679;SDS011;10499;47.494;7.608;2023-02-23T09:54:41;0.10;;;0.10;;
20679;SDS011;10499;47.494;7.608;2023-02-23T09:57:10;0.10;;;0.10;;
20679;SDS011;10499;47.494;7.608;2023-02-23T09:59:41;0.10;;;0.10;;
20679;SDS011;10499;47.494;7.608;2023-02-23T10:02:22;0.10;;;0.10;;
20679;SDS011;10499;47.494;7.608;2023-02-23T10:05:15;0.10;;;0.10;;
20679;SDS011;10499;47.494;7.608;2023-02-23T10:07:49;0.10;;;0.10;;
20679;SDS011;10499;47.494;7.608;2023-02-23T10:10:43;0.10;;;0.10;;
20679;SDS011;10499;47.494;7.608;2023-02-23T10:13:45;0.10;;;0.10;;
20679;SDS011;10499;47.494;7.608;2023-02-23T10:16:32;0.10;;;0.10;;
20679;SDS011;10499;47.494;7.608;2023-02-23T10:21:41;0.10;;;0.10;;
20679;SDS011;10499;47.494;7.608;2023-02-23T10:26:50;0.10;;;0.10;;
20679;SDS011;10499;47.494;7.608;2023-02-23T10:29:22;0.10;;;0.10;;
20679;SDS011;10499;47.494;7.608;2023-02-23T10:32:11;0.10;;;0.10;;
20679;SDS011;10499;47.494;7.608;2023-02-23T10:35:01;0.10;;;0.10;;
20679;SDS011;10499;47.494;7.608;2023-02-23T10:37:36;0.08;;;0.08;;
20679;SDS011;10499;47.494;7.608;2023-02-23T10:40:02;0.10;;;0.10;;
20679;SDS011;10499;47.494;7.608;2023-02-23T10:42:29;0.00;;;0.00;;
20679;SDS011;10499;47.494;7.608;2023-02-23T10:44:56;0.10;;;0.10;;
20679;SDS011;10499;47.494;7.608;2023-02-23T10:47:26;0.10;;;0.10;;
20679;SDS011;10499;47.494;7.608;2023-02-23T10:49:57;0.10;;;0.10;;
20679;SDS011;10499;47.494;7.608;2023-02-23T10:52:40;0.00;;;0.00;;
20679;SDS011;10499;47.494;7.608;2023-02-23T10:55:23;0.10;;;0.10;;
20679;SDS011;10499;47.494;7.608;2023-02-23T10:57:49;0.10;;;0.10;;
20679;SDS011;10499;47.494;7.608;2023-02-23T11:00:27;0.10;;;0.10;;
20679;SDS011;10499;47.494;7.608;2023-02-23T11:02:57;0.10;;;0.10;;
20679;SDS011;10499;47.494;7.608;2023-02-23T11:05:42;0.10;;;0.10;;
20679;SDS011;10499;47.494;7.608;2023-02-23T11:10:58;0.10;;;0.10;;
20679;SDS011;10499;47.494;7.608;2023-02-23T11:13:36;0.00;;;0.00;;
20679;SDS011;10499;47.494;7.608;2023-02-23T11:16:09;0.10;;;0.10;;
20679;SDS011;10499;47.494;7.608;2023-02-23T11:18:38;0.10;;;0.10;;
20679;SDS011;10499;47.494;7.608;2023-02-23T11:21:17;0.05;;;0.05;;
20679;SDS011;10499;47.494;7.608;2023-02-23T11:23:52;0.10;;;0.10;;
20679;SDS011;10499;47.494;7.608;2023-02-23T11:28:58;0.10;;;0.10;;
20679;SDS011;10499;47.494;7.608;2023-02-23T11:31:30;0.00;;;0.00;;
20679;SDS011;10499;47.494;7.608;2023-02-23T11:33:58;0.10;;;0.10;;
20679;SDS011;10499;47.494;7.608;2023-02-23T11:36:28;0.00;;;0.00;;
20679;SDS011;10499;47.494;7.608;2023-02-23T11:39:01;0.00;;;0.00;;
20679;SDS011;10499;47.494;7.608;2023-02-23T11:41:32;0.10;;;0.10;;
20679;SDS011;10499;47.494;7.608;2023-02-23T11:43:59;0.03;;;0.03;;
20679;SDS011;10499;47.494;7.608;2023-02-23T11:46:27;0.10;;;0.10;;
20679;SDS011;10499;47.494;7.608;2023-02-23T11:49:13;0.10;;;0.10;;
20679;SDS011;10499;47.494;7.608;2023-02-23T11:51:48;0.10;;;0.10;;
20679;SDS011;10499;47.494;7.608;2023-02-23T11:54:20;0.10;;;0.10;;
20679;SDS011;10499;47.494;7.608;2023-02-23T11:56:52;0.10;;;0.10;;
20679;SDS011;10499;47.494;7.608;2023-02-23T11:59:31;0.10;;;0.10;;
20679;SDS011;10499;47.494;7.608;2023-02-23T12:02:19;0.10;;;0.10;;
20679;SDS011;10499;47.494;7.608;2023-02-23T12:05:03;0.00;;;0.00;;
20679;SDS011;10499;47.494;7.608;2023-02-23T12:10:50;0.10;;;0.10;;
20679;SDS011;10499;47.494;7.608;2023-02-23T12:21:46;0.10;;;0.10;;
20679;SDS011;10499;47.494;7.608;2023-02-23T12:24:19;0.00;;;0.00;;
20679;SDS011;10499;47.494;7.608;2023-02-23T12:26:59;0.00;;;0.00;;
20679;SDS011;10499;47.494;7.608;2023-02-23T12:30:02;0.10;;;0.10;;
20679;SDS011;10499;47.494;7.608;2023-02-23T12:37:42;0.00;;;0.00;;
20679;SDS011;10499;47.494;7.608;2023-02-23T12:40:17;0.10;;;0.10;;
20679;SDS011;10499;47.494;7.608;2023-02-23T12:42:56;0.10;;;0.10;;
20679;SDS011;10499;47.494;7.608;2023-02-23T12:48:30;0.10;;;0.10;;
20679;SDS011;10499;47.494;7.608;2023-02-23T12:53:59;0.10;;;0.10;;
20679;SDS011;10499;47.494;7.608;2023-02-23T13:01:57;0.10;;;0.10;;
20679;SDS011;10499;47.494;7.608;2023-02-23T13:07:13;0.10;;;0.10;;
20679;SDS011;10499;47.494;7.608;2023-02-23T13:09:50;0.10;;;0.10;;
20679;SDS011;10499;47.494;7.608;2023-02-23T13:15:10;0.10;;;0.10;;
20679;SDS011;10499;47.494;7.608;2023-02-23T13:20:40;0.10;;;0.10;;
20679;SDS011;10499;47.494;7.608;2023-02-23T13:31:21;0.10;;;0.10;;
20679;SDS011;10499;47.494;7.608;2023-02-23T13:33:53;0.10;;;0.10;;
20679;SDS011;10499;47.494;7.608;2023-02-23T13:36:21;0.10;;;0.10;;
20679;SDS011;10499;47.494;7.608;2023-02-23T13:39:02;0.10;;;0.10;;
20679;SDS011;10499;47.494;7.608;2023-02-23T13:53:40;0.10;;;0.10;;
20679;SDS011;10499;47.494;7.608;2023-02-23T13:56:33;0.10;;;0.10;;
20679;SDS011;10499;47.494;7.608;2023-02-23T13:59:06;0.10;;;0.10;;
20679;SDS011;10499;47.494;7.608;2023-02-23T14:01:38;0.10;;;0.10;;
20679;SDS011;10499;47.494;7.608;2023-02-23T14:04:41;0.10;;;0.10;;
20679;SDS011;10499;47.494;7.608;2023-02-23T14:12:32;0.00;;;0.00;;
20679;SDS011;10499;47.494;7.608;2023-02-23T14:18:02;0.10;;;0.10;;
20679;SDS011;10499;47.494;7.608;2023-02-23T14:20:38;0.10;;;0.10;;
20679;SDS011;10499;47.494;7.608;2023-02-23T14:25:43;0.10;;;0.10;;
20679;SDS011;10499;47.494;7.608;2023-02-23T14:28:24;0.10;;;0.10;;
20679;SDS011;10499;47.494;7.608;2023-02-23T14:43:56;0.10;;;0.10;;
20679;SDS011;10499;47.494;7.608;2023-02-23T14:46:30;0.10;;;0.10;;
20679;SDS011;10499;47.494;7.608;2023-02-23T14:49:06;0.10;;;0.10;;
20679;SDS011;10499;47.494;7.608;2023-02-23T14:51:55;0.10;;;0.10;;
20679;SDS011;10499;47.494;7.608;2023-02-23T14:54:34;0.10;;;0.10;;
20679;SDS011;10499;47.494;7.608;2023-02-23T14:57:03;0.10;;;0.10;;
20679;SDS011;10499;47.494;7.608;2023-02-23T14:59:38;0.10;;;0.10;;
20679;SDS011;10499;47.494;7.608;2023-02-23T15:02:15;0.10;;;0.10;;
20679;SDS011;10499;47.494;7.608;2023-02-23T15:04:44;0.10;;;0.10;;
20679;SDS011;10499;47.494;7.608;2023-02-23T15:07:14;0.10;;;0.10;;
20679;SDS011;10499;47.494;7.608;2023-02-23T15:10:07;0.10;;;0.10;;
20679;SDS011;10499;47.494;7.608;2023-02-23T15:12:36;0.10;;;0.10;;
20679;SDS011;10499;47.494;7.608;2023-02-23T15:15:03;0.10;;;0.10;;
20679;SDS011;10499;47.494;7.608;2023-02-23T15:17:36;0.10;;;0.10;;
20679;SDS011;10499;47.494;7.608;2023-02-23T15:20:07;0.10;;;0.10;;
20679;SDS011;10499;47.494;7.608;2023-02-23T15:22:41;0.10;;;0.10;;
20679;SDS011;10499;47.494;7.608;2023-02-23T15:25:20;0.10;;;0.10;;
20679;SDS011;10499;47.494;7.608;2023-02-23T15:27:52;0.10;;;0.10;;
20679;SDS011;10499;47.494;7.608;2023-02-23T15:30:24;0.10;;;0.10;;
20679;SDS011;10499;47.494;7.608;2023-02-23T15:35:33;0.10;;;0.10;;
20679;SDS011;10499;47.494;7.608;2023-02-23T15:38:06;0.10;;;0.10;;
20679;SDS011;10499;47.494;7.608;2023-02-23T15:40:33;0.10;;;0.10;;
20679;SDS011;10499;47.494;7.608;2023-02-23T15:42:59;0.10;;;0.10;;
20679;SDS011;10499;47.494;7.608;2023-02-23T15:45:34;0.10;;;0.10;;
20679;SDS011;10499;47.494;7.608;2023-02-23T15:48:07;0.10;;;0.10;;
20679;SDS011;10499;47.494;7.608;2023-02-23T15:50:42;0.10;;;0.10;;
20679;SDS011;10499;47.494;7.608;2023-02-23T15:53:25;0.10;;;0.10;;
20679;SDS011;10499;47.494;7.608;2023-02-23T15:55:54;0.10;;;0.10;;
20679;SDS011;10499;47.494;7.608;2023-02-23T15:58:26;0.10;;;0.10;;
20679;SDS011;10499;47.494;7.608;2023-02-23T16:00:58;0.10;;;0.10;;
20679;SDS011;10499;47.494;7.608;2023-02-23T16:03:33;0.10;;;0.10;;
20679;SDS011;10499;47.494;7.608;2023-02-23T16:08:32;0.10;;;0.10;;
20679;SDS011;10499;47.494;7.608;2023-02-23T16:11:07;0.10;;;0.10;;
20679;SDS011;10499;47.494;7.608;2023-02-23T16:13:36;0.10;;;0.10;;
20679;SDS011;10499;47.494;7.608;2023-02-23T16:16:06;0.10;;;0.10;;
20679;SDS011;10499;47.494;7.608;2023-02-23T16:18:39;0.20;;;0.20;;
20679;SDS011;10499;47.494;7.608;2023-02-23T16:21:06;0.10;;;0.10;;
20679;SDS011;10499;47.494;7.608;2023-02-23T16:23:41;0.10;;;0.10;;
20679;SDS011;10499;47.494;7.608;2023-02-23T16:26:10;0.10;;;0.10;;
20679;SDS011;10499;47.494;7.608;2023-02-23T16:28:41;0.10;;;0.10;;
20679;SDS011;10499;47.494;7.608;2023-02-23T16:31:09;0.20;;;0.20;;
20679;SDS011;10499;47.494;7.608;2023-02-23T16:33:44;0.20;;;0.20;;
20679;SDS011;10499;47.494;7.608;2023-02-23T16:36:23;0.10;;;0.10;;
20679;SDS011;10499;47.494;7.608;2023-02-23T16:39:01;0.15;;;0.15;;
20679;SDS011;10499;47.494;7.608;2023-02-23T16:41:33;0.10;;;0.10;;
20679;SDS011;10499;47.494;7.608;2023-02-23T16:44:00;0.10;;;0.10;;
20679;SDS011;10499;47.494;7.608;2023-02-23T16:46:29;0.20;;;0.20;;
20679;SDS011;10499;47.494;7.608;2023-02-23T16:48:57;0.17;;;0.17;;
20679;SDS011;10499;47.494;7.608;2023-02-23T16:51:34;0.20;;;0.20;;
20679;SDS011;10499;47.494;7.608;2023-02-23T16:53:59;0.20;;;0.20;;
20679;SDS011;10499;47.494;7.608;2023-02-23T16:56:28;0.10;;;0.10;;
20679;SDS011;10499;47.494;7.608;2023-02-23T16:58:57;0.20;;;0.20;;
20679;SDS011;10499;47.494;7.608;2023-02-23T17:01:25;0.20;;;0.20;;
20679;SDS011;10499;47.494;7.608;2023-02-23T17:03:51;0.10;;;0.10;;
20679;SDS011;10499;47.494;7.608;2023-02-23T17:06:18;0.20;;;0.20;;
20679;SDS011;10499;47.494;7.608;2023-02-23T17:08:45;0.20;;;0.20;;
20679;SDS011;10499;47.494;7.608;2023-02-23T17:11:10;0.20;;;0.20;;
20679;SDS011;10499;47.494;7.608;2023-02-23T17:13:36;0.20;;;0.20;;
20679;SDS011;10499;47.494;7.608;2023-02-23T17:16:03;0.13;;;0.13;;
20679;SDS011;10499;47.494;7.608;2023-02-23T17:18:34;0.20;;;0.20;;
20679;SDS011;10499;47.494;7.608;2023-02-23T17:21:06;0.20;;;0.20;;
20679;SDS011;10499;47.494;7.608;2023-02-23T17:23:35;0.20;;;0.20;;
20679;SDS011;10499;47.494;7.608;2023-02-23T17:26:14;0.20;;;0.20;;
20679;SDS011;10499;47.494;7.608;2023-02-23T17:28:41;0.20;;;0.20;;
20679;SDS011;10499;47.494;7.608;2023-02-23T17:31:07;0.20;;;0.20;;
20679;SDS011;10499;47.494;7.608;2023-02-23T17:33:34;0.20;;;0.20;;
20679;SDS011;10499;47.494;7.608;2023-02-23T17:36:01;0.20;;;0.20;;
20679;SDS011;10499;47.494;7.608;2023-02-23T17:38:28;0.20;;;0.20;;
20679;SDS011;10499;47.494;7.608;2023-02-23T17:40:58;0.20;;;0.20;;
20679;SDS011;10499;47.494;7.608;2023-02-23T17:43:28;0.20;;;0.20;;